Highland Park, New Jersey
Current Conditions -  °F | °C
As of 8:35 AM on Monday 22 Dec 2014 (Local Time) from KLDJ Reporting Station
Overcast Overcast  
Wind Chill: 40°   Ceiling: 1000
Heat Index: 40°   Visibility: 7mi
Dew Point: 36°   Wind: 3mph
Humidity: 85%   Direction: 10°N
Pressure: 30.36"   Gusts: NA
Location:  40.5°N, 74.42°W
Report Text: KLDJ 221335Z AUTO 01003KT 7SM OVC010 05/02 A3036 RMK AO2 T00450022
Loading
Personal Weather Stations






























Interactive Weather Map New forecast layout! Learn more

10-Day Weather Forecast

Advertisements
Track Severe Weather on mobile